Portada
METAR-TAF:

METAR-TAF

Aeroports :

Air Force Station

Cap Canaveral, Florida, Estats Units d'Amèrica

latitud: 28-28N, longitud: 080-33W, altitud: 3 m

Observació

L'informe es va fer fa 1 hora i 8 minuts, a les 16:56 UTC
Vent 13 kt del Oest/Nord-Oest
Temperatura 15°C
Humitat 41%
Pressió 1021 hPa
Visibilitat: 16.1 km
Cel clar

METAR: KXMR 271656Z AUTO 30013KT 10SM CLR 15/02 A3016 RMK AO2 SLP216 T01490018 $

Hora: 13:04 (18:04 UTC)


TAF: manca

Observacions i pronòstics meteorològics de més de 4000 aeroports (METAR i TAF).

Les estacions disponibles són els punts grocs i vermells al mapa.

Posi el ratolí al punt desitjat per veure el nom de l'estació.

Feu clic per veure les observacions i els pronòstics meteorològics.

Per canviar el mapa: feu clic els botons verds amb una creu de color negre per apropar; al botó verd amb un guió per allunyar la imatge; o en les fletxes verdes per a mapes adjacents.


METAR-TAF: